Time;durP1;ratioP1;P1;durP2;ratioP2;P2;SDS_P1;SDS_P2;PMS_P1;PMS_P2;Temp;Humidity;BMP_temperature;BMP_pressure;BME280_temperature;BME280_humidity;BME280_pressure;Samples;Min_cycle;Max_cycle;Signal;HPM_P1;HPM_P2
2021/06/12 00:00:32;;;;;;;8.03;7.30;;;16.90;99.90;;;;;;5107851;28;20525;-70
2021/06/12 00:02:58;;;;;;;8.33;7.63;;;16.90;99.90;;;;;;5107524;28;20524;-70
2021/06/12 00:05:25;;;;;;;9.03;8.33;;;16.80;99.90;;;;;;5108010;28;20967;-70
2021/06/12 00:07:52;;;;;;;9.10;8.20;;;16.80;99.90;;;;;;5108529;28;20461;-70
2021/06/12 00:10:21;;;;;;;8.83;7.97;;;16.80;99.90;;;;;;5108261;28;20960;-70
2021/06/12 00:12:49;;;;;;;8.20;7.50;;;16.70;99.90;;;;;;5109836;28;20452;-70
2021/06/12 00:15:17;;;;;;;10.07;9.07;;;16.70;99.90;;;;;;5110397;28;20512;-70
2021/06/12 00:17:44;;;;;;;9.63;8.73;;;16.70;99.90;;;;;;5110706;28;20456;-70
2021/06/12 00:20:13;;;;;;;9.47;8.53;;;16.60;99.90;;;;;;5110226;28;20472;-69
2021/06/12 00:22:39;;;;;;;8.90;8.10;;;16.60;99.90;;;;;;5110120;28;20452;-70
2021/06/12 00:25:07;;;;;;;8.53;7.83;;;16.60;99.90;;;;;;5110463;28;20522;-69
2021/06/12 00:27:33;;;;;;;9.00;8.20;;;16.60;99.90;;;;;;5110572;28;20453;-69
2021/06/12 00:30:01;;;;;;;9.07;8.27;;;16.60;99.90;;;;;;5110487;28;20976;-70
2021/06/12 00:32:27;;;;;;;9.50;8.80;;;16.50;99.90;;;;;;5109675;28;20467;-69
2021/06/12 00:34:53;;;;;;;9.60;8.73;;;16.50;99.90;;;;;;5110260;28;20567;-69
2021/06/12 00:37:19;;;;;;;8.87;8.07;;;16.40;99.90;;;;;;5110280;28;20464;-69
2021/06/12 00:39:46;;;;;;;10.27;9.33;;;16.40;99.90;;;;;;5110515;28;20889;-69
2021/06/12 00:42:12;;;;;;;9.27;8.37;;;16.40;99.90;;;;;;5113805;28;20460;-69
2021/06/12 00:44:38;;;;;;;11.73;9.30;;;16.40;99.90;;;;;;5113916;28;20473;-69
2021/06/12 00:47:06;;;;;;;9.83;9.07;;;16.30;99.90;;;;;;5114121;28;20456;-70
2021/06/12 00:49:32;;;;;;;9.57;8.87;;;16.30;99.90;;;;;;5114327;28;20467;-70
2021/06/12 00:51:58;;;;;;;9.67;8.77;;;16.30;99.90;;;;;;5113455;28;20453;-69
2021/06/12 00:54:24;;;;;;;8.87;8.07;;;16.30;99.90;;;;;;5114372;28;20488;-70
2021/06/12 00:56:51;;;;;;;9.80;8.90;;;16.30;99.90;;;;;;5113694;28;20469;-69
2021/06/12 00:59:18;;;;;;;9.40;8.50;;;16.30;99.90;;;;;;5113966;28;20521;-69
2021/06/12 01:01:44;;;;;;;9.70;8.90;;;16.30;99.90;;;;;;5113711;28;20460;-69
2021/06/12 01:04:12;;;;;;;10.60;9.50;;;16.30;99.90;;;;;;5113339;28;20463;-69
2021/06/12 01:06:38;;;;;;;9.77;8.97;;;16.20;99.90;;;;;;5113974;28;20456;-70
2021/06/12 01:09:05;;;;;;;10.80;9.90;;;16.20;99.90;;;;;;5113511;28;20486;-69
2021/06/12 01:11:36;;;;;;;10.30;9.50;;;16.20;99.90;;;;;;5113440;28;20463;-69
2021/06/12 01:14:08;;;;;;;9.43;8.57;;;16.10;99.90;;;;;;5113525;28;20476;-69
2021/06/12 01:16:41;;;;;;;9.70;8.90;;;16.10;99.90;;;;;;5113676;28;20513;-69
2021/06/12 01:19:21;;;;;;;11.70;8.90;;;16.10;99.90;;;;;;5113584;28;20460;-70
2021/06/12 01:21:53;;;;;;;9.17;8.27;;;16.10;99.90;;;;;;5113362;28;20456;-69
2021/06/12 01:24:42;;;;;;;10.37;9.50;;;16.10;99.90;;;;;;5113716;28;20480;-70
2021/06/12 01:27:36;;;;;;;10.23;9.33;;;16.10;99.90;;;;;;5113641;28;20464;-70
2021/06/12 01:30:12;;;;;;;10.27;9.40;;;16.00;99.90;;;;;;5113015;28;20983;-70
2021/06/12 01:32:40;;;;;;;10.00;9.20;;;16.00;99.90;;;;;;5113248;28;20457;-69
2021/06/12 01:35:11;;;;;;;9.80;9.00;;;16.00;99.90;;;;;;5119173;27;20487;-69
2021/06/12 01:37:40;;;;;;;10.50;9.50;;;15.90;99.90;;;;;;5133916;27;20452;-69
2021/06/12 01:40:10;;;;;;;10.53;9.63;;;15.90;99.90;;;;;;5133657;27;20464;-69
2021/06/12 01:42:37;;;;;;;10.27;9.47;;;15.90;99.90;;;;;;5133259;27;20459;-69
2021/06/12 01:45:07;;;;;;;9.43;8.67;;;15.90;99.90;;;;;;5133364;27;20478;-69
2021/06/12 01:47:33;;;;;;;10.53;9.53;;;15.80;99.90;;;;;;5133391;27;20455;-69
2021/06/12 01:50:00;;;;;;;10.83;9.30;;;15.80;99.90;;;;;;5133548;27;20831;-69
2021/06/12 01:52:27;;;;;;;9.80;8.90;;;15.80;99.90;;;;;;5133232;27;20455;-69
2021/06/12 01:54:55;;;;;;;10.57;9.67;;;15.70;99.90;;;;;;5132889;27;20487;-69
2021/06/12 01:57:22;;;;;;;9.67;8.83;;;15.70;99.90;;;;;;5133379;27;20947;-69
2021/06/12 01:59:51;;;;;;;11.67;10.67;;;15.70;99.90;;;;;;5133092;27;20460;-69
2021/06/12 02:02:20;;;;;;;10.20;9.30;;;15.70;99.90;;;;;;5132700;27;20464;-69
2021/06/12 02:04:50;;;;;;;10.77;9.87;;;15.70;99.90;;;;;;5133272;27;20480;-69
2021/06/12 02:07:16;;;;;;;10.30;9.40;;;15.70;99.90;;;;;;5132689;27;20528;-69
2021/06/12 02:09:43;;;;;;;11.00;10.00;;;15.70;99.90;;;;;;5133461;27;20547;-69
2021/06/12 02:12:11;;;;;;;11.43;10.40;;;15.70;99.90;;;;;;5132688;27;20459;-69
2021/06/12 02:14:39;;;;;;;10.20;9.20;;;15.60;99.90;;;;;;5133006;27;20492;-69
2021/06/12 02:17:06;;;;;;;10.90;9.90;;;15.60;99.90;;;;;;5133001;27;20707;-69
2021/06/12 02:19:35;;;;;;;11.17;10.17;;;15.60;99.90;;;;;;5132695;27;20483;-69
2021/06/12 02:22:27;;;;;;;11.17;10.17;;;15.60;99.90;;;;;;5132706;27;20846;-69
2021/06/12 02:24:53;;;;;;;11.73;10.63;;;15.60;99.90;;;;;;5081803;28;20477;-69
2021/06/12 02:27:21;;;;;;;11.00;9.97;;;15.50;99.90;;;;;;5091696;28;20469;-69
2021/06/12 02:29:48;;;;;;;11.93;10.47;;;15.60;99.90;;;;;;5092108;28;20478;-69
2021/06/12 02:32:17;;;;;;;10.57;9.30;;;15.50;99.90;;;;;;5091217;28;20461;-69
2021/06/12 02:34:45;;;;;;;10.97;10.07;;;15.50;99.90;;;;;;5091616;28;21012;-69
2021/06/12 02:37:11;;;;;;;11.37;10.37;;;15.50;99.90;;;;;;5091995;28;20464;-69
2021/06/12 02:39:38;;;;;;;10.20;9.40;;;15.50;99.90;;;;;;5091332;28;20458;-69
2021/06/12 02:42:06;;;;;;;10.33;9.53;;;15.50;99.90;;;;;;5091311;28;20802;-69
2021/06/12 02:44:32;;;;;;;10.17;9.27;;;15.50;99.90;;;;;;5091306;28;20526;-69
2021/06/12 02:47:02;;;;;;;10.03;9.23;;;15.50;99.90;;;;;;5091344;28;20472;-69
2021/06/12 02:49:33;;;;;;;10.07;9.27;;;15.50;99.90;;;;;;5091885;28;20534;-69
2021/06/12 02:52:03;;;;;;;10.77;9.87;;;15.50;99.90;;;;;;5090773;28;20457;-69
2021/06/12 02:54:31;;;;;;;10.03;9.13;;;15.40;99.90;;;;;;5091563;28;20477;-69
2021/06/12 02:56:59;;;;;;;10.10;9.10;;;15.40;99.90;;;;;;5090914;28;20473;-69
2021/06/12 02:59:28;;;;;;;10.60;9.80;;;15.40;99.90;;;;;;5091608;28;20506;-69
2021/06/12 03:01:55;;;;;;;9.70;8.80;;;15.40;99.90;;;;;;5090897;28;20461;-69
2021/06/12 03:04:22;;;;;;;9.87;9.07;;;15.40;99.90;;;;;;5115891;27;20478;-69
2021/06/12 03:06:51;;;;;;;9.53;8.73;;;15.40;99.90;;;;;;5132329;27;20460;-69
2021/06/12 03:09:21;;;;;;;10.77;9.87;;;15.40;99.90;;;;;;5131955;27;20462;-69
2021/06/12 03:11:50;;;;;;;10.80;9.80;;;15.30;99.90;;;;;;5131679;27;21010;-69
2021/06/12 03:14:17;;;;;;;10.77;9.70;;;15.30;99.90;;;;;;5132049;27;20478;-69
2021/06/12 03:16:45;;;;;;;9.00;8.20;;;15.30;99.90;;;;;;5131476;27;20463;-69
2021/06/12 03:19:13;;;;;;;9.93;9.13;;;15.30;99.90;;;;;;5132114;27;20472;-69
2021/06/12 03:21:40;;;;;;;10.83;9.90;;;15.30;99.90;;;;;;5131389;27;20459;-69
2021/06/12 03:24:07;;;;;;;10.03;9.23;;;15.30;99.90;;;;;;5131514;27;20456;-69
2021/06/12 03:26:36;;;;;;;10.27;9.47;;;15.30;99.90;;;;;;5131871;27;21025;-69
2021/06/12 03:29:03;;;;;;;10.30;9.30;;;15.30;99.90;;;;;;5131230;27;20460;-69
2021/06/12 03:31:30;;;;;;;9.67;8.90;;;15.20;99.90;;;;;;5131564;27;20452;-69
2021/06/12 03:33:57;;;;;;;10.13;9.23;;;15.20;99.90;;;;;;5131440;27;20463;-69
2021/06/12 03:36:26;;;;;;;9.73;8.80;;;15.20;99.90;;;;;;5131846;27;20455;-69
2021/06/12 03:38:53;;;;;;;10.13;9.27;;;15.20;99.90;;;;;;5131540;27;20989;-69
2021/06/12 03:41:21;;;;;;;9.90;9.10;;;15.10;99.90;;;;;;5131273;27;20467;-69
2021/06/12 03:43:50;;;;;;;9.80;9.00;;;15.20;99.90;;;;;;5131500;27;20459;-69
2021/06/12 03:46:17;;;;;;;9.70;8.90;;;15.20;99.90;;;;;;5131596;27;20495;-69
2021/06/12 03:48:45;;;;;;;9.77;8.87;;;15.20;99.90;;;;;;5130996;27;20459;-69
2021/06/12 03:51:14;;;;;;;9.27;8.57;;;15.10;99.90;;;;;;5131221;27;20482;-69
2021/06/12 03:53:44;;;;;;;9.20;8.30;;;15.10;99.90;;;;;;5131023;28;20464;-69
2021/06/12 03:56:12;;;;;;;9.63;8.83;;;15.10;99.90;;;;;;5131456;27;20484;-69
2021/06/12 03:58:40;;;;;;;9.77;8.97;;;15.10;99.90;;;;;;5131378;28;20981;-69
2021/06/12 04:01:07;;;;;;;9.97;8.97;;;15.10;99.90;;;;;;5131042;28;20460;-68
2021/06/12 04:03:33;;;;;;;10.47;9.17;;;15.10;99.90;;;;;;5117430;28;20461;-68
2021/06/12 04:06:00;;;;;;;8.97;8.17;;;15.10;99.90;;;;;;5109142;28;20473;-68
2021/06/12 04:08:27;;;;;;;10.03;9.03;;;15.10;99.90;;;;;;5109508;28;20956;-68
2021/06/12 04:10:53;;;;;;;10.00;9.10;;;15.10;99.90;;;;;;5109211;28;20510;-68
2021/06/12 04:13:19;;;;;;;9.33;8.50;;;15.10;99.90;;;;;;5109311;28;20963;-67
2021/06/12 04:15:45;;;;;;;9.83;9.03;;;15.10;99.90;;;;;;5110786;28;20514;-68
2021/06/12 04:18:15;;;;;;;10.83;9.83;;;15.20;99.90;;;;;;5113369;28;20544;-68
2021/06/12 04:20:41;;;;;;;9.53;8.63;;;15.10;99.90;;;;;;5113349;28;20452;-68
2021/06/12 04:23:08;;;;;;;11.00;10.10;;;15.20;99.90;;;;;;5113424;28;20460;-68
2021/06/12 04:25:34;;;;;;;9.60;8.67;;;15.20;99.90;;;;;;5113059;28;20476;-68
2021/06/12 04:28:01;;;;;;;9.53;8.73;;;15.20;99.90;;;;;;5113202;28;20460;-68
2021/06/12 04:30:27;;;;;;;10.00;9.20;;;15.20;99.90;;;;;;5113052;28;20841;-68
2021/06/12 04:32:54;;;;;;;9.10;8.37;;;15.20;99.90;;;;;;5112932;28;21033;-68
2021/06/12 04:35:21;;;;;;;9.30;8.50;;;15.20;99.90;;;;;;5113263;28;20491;-68
2021/06/12 04:37:48;;;;;;;9.33;8.53;;;15.20;99.90;;;;;;5112797;28;20816;-68
2021/06/12 04:40:15;;;;;;;10.13;9.23;;;15.20;99.90;;;;;;5113136;28;20464;-68
2021/06/12 04:42:42;;;;;;;9.37;8.57;;;15.20;99.90;;;;;;5112689;28;20456;-68
2021/06/12 04:45:09;;;;;;;10.47;9.47;;;15.20;99.90;;;;;;5112965;28;20464;-68
2021/06/12 04:47:36;;;;;;;9.07;8.27;;;15.30;99.90;;;;;;5113308;28;20457;-68
2021/06/12 04:50:05;;;;;;;10.37;9.37;;;15.30;99.90;;;;;;5112652;28;20472;-68
2021/06/12 04:52:33;;;;;;;9.67;8.77;;;15.40;99.90;;;;;;5110315;28;20448;-68
2021/06/12 04:54:59;;;;;;;10.60;9.70;;;15.40;99.90;;;;;;5112507;28;20483;-68
2021/06/12 04:57:25;;;;;;;9.93;9.03;;;15.50;99.90;;;;;;5112670;28;20448;-68
2021/06/12 04:59:51;;;;;;;10.30;9.30;;;15.60;99.90;;;;;;5112804;28;20445;-68
2021/06/12 05:02:18;;;;;;;9.53;8.80;;;15.70;99.90;;;;;;5112266;28;20800;-68
2021/06/12 05:04:44;;;;;;;9.60;8.60;;;15.70;99.90;;;;;;5112735;28;20468;-68
2021/06/12 05:07:10;;;;;;;10.20;9.40;;;15.70;99.90;;;;;;5110288;28;20444;-68
2021/06/12 05:09:38;;;;;;;9.57;8.77;;;15.80;99.90;;;;;;5112532;28;20459;-68
2021/06/12 05:12:05;;;;;;;9.73;8.97;;;15.90;99.90;;;;;;5112359;28;20819;-68
2021/06/12 05:14:31;;;;;;;10.07;9.27;;;16.00;99.90;;;;;;5109882;28;20566;-68
2021/06/12 05:17:00;;;;;;;10.30;9.43;;;16.00;99.90;;;;;;5112312;28;20449;-68
2021/06/12 05:19:26;;;;;;;10.20;9.40;;;16.10;99.90;;;;;;5112568;28;20456;-68
2021/06/12 05:21:53;;;;;;;10.83;9.83;;;16.20;99.90;;;;;;5111641;28;20914;-68
2021/06/12 05:24:19;;;;;;;10.13;9.13;;;16.40;99.90;;;;;;5112297;28;20480;-68
2021/06/12 05:26:47;;;;;;;9.77;8.87;;;16.50;99.90;;;;;;5111245;28;20456;-68
2021/06/12 05:29:13;;;;;;;9.47;8.77;;;16.50;99.90;;;;;;5112606;28;20453;-67
2021/06/12 05:31:39;;;;;;;10.60;9.70;;;16.50;99.90;;;;;;5124004;22;20496;-70
2021/06/12 05:34:05;;;;;;;9.40;8.60;;;16.70;99.90;;;;;;5090532;28;20469;-71
2021/06/12 05:36:32;;;;;;;10.20;9.30;;;16.70;99.90;;;;;;5091694;28;20457;-71
2021/06/12 05:38:58;;;;;;;11.17;10.00;;;16.80;99.90;;;;;;5092198;28;20453;-71
2021/06/12 05:41:24;;;;;;;11.50;9.80;;;17.00;99.90;;;;;;5091461;28;20465;-71
2021/06/12 05:43:52;;;;;;;10.50;9.57;;;17.00;99.90;;;;;;5081598;28;20459;-71
2021/06/12 05:46:18;;;;;;;11.70;10.47;;;17.20;99.90;;;;;;5080468;28;20453;-71
2021/06/12 05:48:44;;;;;;;11.50;10.50;;;17.30;99.90;;;;;;5082500;28;20875;-70
2021/06/12 05:51:11;;;;;;;10.47;9.50;;;17.40;99.90;;;;;;5080223;28;20462;-71
2021/06/12 05:53:37;;;;;;;12.43;11.33;;;17.50;99.90;;;;;;5080687;28;20837;-71
2021/06/12 05:56:03;;;;;;;10.83;9.93;;;17.60;99.90;;;;;;5082237;28;20504;-71
2021/06/12 05:58:30;;;;;;;10.80;9.87;;;17.70;99.90;;;;;;5080131;28;20466;-71
2021/06/12 06:00:58;;;;;;;10.93;9.80;;;17.80;99.90;;;;;;5080841;28;20530;-70
2021/06/12 06:03:24;;;;;;;11.20;10.30;;;17.90;99.90;;;;;;5081521;28;20842;-71
2021/06/12 06:05:50;;;;;;;10.80;10.00;;;18.00;99.90;;;;;;5080720;28;20455;-70
2021/06/12 06:08:17;;;;;;;10.33;9.43;;;18.10;99.90;;;;;;5080486;28;20450;-71
2021/06/12 06:10:43;;;;;;;10.17;9.37;;;18.20;99.90;;;;;;5081645;28;20457;-71
2021/06/12 06:13:09;;;;;;;8.87;8.03;;;18.40;99.90;;;;;;5080355;28;20482;-71
2021/06/12 06:15:35;;;;;;;8.87;8.17;;;18.50;99.90;;;;;;5080234;28;20900;-68
2021/06/12 06:18:03;;;;;;;8.97;8.27;;;18.60;99.90;;;;;;5080139;28;21016;-69
2021/06/12 06:20:29;;;;;;;9.80;9.10;;;18.70;99.90;;;;;;5080544;28;20965;-69
2021/06/12 06:22:55;;;;;;;9.40;8.60;;;18.80;99.90;;;;;;5081161;28;20489;-69
2021/06/12 06:25:23;;;;;;;8.87;8.17;;;18.90;99.90;;;;;;5079602;28;20458;-70
2021/06/12 06:27:49;;;;;;;8.17;7.43;;;19.00;99.90;;;;;;5080245;28;20549;-70
2021/06/12 06:30:16;;;;;;;8.60;7.80;;;19.10;99.90;;;;;;5081746;28;20482;-70
2021/06/12 06:32:43;;;;;;;8.83;8.03;;;19.10;99.90;;;;;;5078853;28;20486;-69
2021/06/12 06:35:14;;;;;;;7.53;7.03;;;19.20;99.90;;;;;;5080108;28;21034;-70
2021/06/12 06:37:40;;;;;;;8.33;7.73;;;19.30;99.90;;;;;;5081449;28;20461;-70
2021/06/12 06:40:07;;;;;;;8.00;7.30;;;19.40;99.90;;;;;;5080065;28;20827;-69
2021/06/12 06:42:34;;;;;;;8.07;7.27;;;19.50;99.90;;;;;;5079209;28;21080;-69
2021/06/12 06:45:00;;;;;;;8.60;7.77;;;19.60;99.90;;;;;;5081446;28;20507;-69
2021/06/12 06:47:26;;;;;;;8.40;7.57;;;19.60;99.90;;;;;;5079466;28;20458;-69
2021/06/12 06:49:52;;;;;;;16.83;8.10;;;19.80;99.90;;;;;;5079590;28;20453;-69
2021/06/12 06:52:20;;;;;;;7.73;7.13;;;20.00;99.90;;;;;;5072805;28;20500;-70
2021/06/12 06:54:46;;;;;;;7.50;6.90;;;20.20;99.90;;;;;;5070073;28;20481;-70
2021/06/12 06:57:12;;;;;;;7.80;7.10;;;20.30;99.90;;;;;;5070436;28;20458;-71
2021/06/12 06:59:39;;;;;;;7.57;6.97;;;20.40;99.90;;;;;;5069872;28;20455;-72
2021/06/12 07:02:05;;;;;;;7.07;6.50;;;20.40;99.90;;;;;;5069563;28;20918;-72
2021/06/12 07:04:32;;;;;;;8.43;7.63;;;20.50;99.90;;;;;;5069584;28;20481;-72
2021/06/12 07:06:58;;;;;;;7.10;6.47;;;20.60;99.90;;;;;;5069770;28;20929;-72
2021/06/12 07:09:25;;;;;;;6.90;6.30;;;20.60;99.90;;;;;;5083034;28;20953;-72
2021/06/12 07:11:52;;;;;;;6.63;6.13;;;20.70;99.90;;;;;;5089755;28;20481;-73
2021/06/12 07:14:18;;;;;;;7.10;6.50;;;20.80;99.90;;;;;;5090417;28;20453;-72
2021/06/12 07:16:44;;;;;;;6.60;6.03;;;20.80;99.90;;;;;;5090489;28;20473;-72
2021/06/12 07:19:10;;;;;;;6.47;5.87;;;20.90;99.90;;;;;;5089833;28;20460;-72
2021/06/12 07:21:37;;;;;;;8.70;5.70;;;21.00;99.90;;;;;;5089746;28;20520;-72
2021/06/12 07:24:03;;;;;;;8.70;6.00;;;21.10;99.90;;;;;;5089986;28;20468;-73
2021/06/12 07:26:31;;;;;;;6.27;5.50;;;21.20;99.90;;;;;;5089534;28;20458;-72
2021/06/12 07:28:57;;;;;;;7.07;6.33;;;21.30;99.90;;;;;;5089988;28;20466;-73
2021/06/12 07:31:23;;;;;;;5.77;5.37;;;21.40;99.90;;;;;;5089063;28;20458;-72
2021/06/12 07:33:49;;;;;;;5.30;4.90;;;21.50;99.90;;;;;;5078323;28;20458;-70
2021/06/12 07:36:15;;;;;;;6.00;5.47;;;21.60;99.90;;;;;;5080459;28;20512;-69
2021/06/12 07:38:42;;;;;;;5.57;5.10;;;21.60;99.90;;;;;;5078959;28;20458;-69
2021/06/12 07:41:08;;;;;;;4.60;4.30;;;21.70;99.90;;;;;;5076760;28;20466;-69
2021/06/12 07:43:35;;;;;;;5.10;4.63;;;21.80;99.90;;;;;;5077530;28;20478;-69
2021/06/12 07:46:02;;;;;;;4.93;4.53;;;21.90;99.90;;;;;;5080332;28;21015;-69
2021/06/12 07:48:28;;;;;;;4.80;4.00;;;22.00;99.90;;;;;;5077498;28;20464;-70
2021/06/12 07:50:54;;;;;;;4.63;4.23;;;22.10;99.90;;;;;;5079431;28;20457;-69
2021/06/12 07:53:20;;;;;;;6.10;4.37;;;22.20;99.90;;;;;;5078591;28;20475;-69
2021/06/12 07:55:47;;;;;;;5.40;4.40;;;22.30;99.90;;;;;;5079446;28;20481;-69
2021/06/12 07:58:13;;;;;;;4.80;4.30;;;22.40;99.90;;;;;;5080510;28;20465;-69
2021/06/12 08:00:40;;;;;;;6.37;4.40;;;22.50;99.90;;;;;;5079154;28;20454;-70
2021/06/12 08:03:07;;;;;;;4.73;4.27;;;22.50;99.90;;;;;;5078965;28;20469;-69
2021/06/12 08:05:33;;;;;;;4.93;4.50;;;22.60;99.90;;;;;;5080673;28;20514;-69
2021/06/12 08:07:59;;;;;;;4.50;4.10;;;22.80;99.90;;;;;;5079401;28;20505;-69
2021/06/12 08:10:26;;;;;;;3.87;3.57;;;22.90;99.90;;;;;;5078767;28;20975;-70
2021/06/12 08:12:52;;;;;;;5.57;4.13;;;23.00;99.90;;;;;;5080022;28;20485;-70
2021/06/12 08:15:19;;;;;;;4.47;4.07;;;23.10;99.90;;;;;;5077455;28;20541;-70
2021/06/12 08:17:47;;;;;;;4.53;4.10;;;23.20;99.90;;;;;;5078560;28;20553;-70
2021/06/12 08:20:13;;;;;;;4.83;4.20;;;23.30;99.90;;;;;;5079890;28;20462;-70
2021/06/12 08:22:41;;;;;;;4.40;3.90;;;23.40;99.90;;;;;;5077305;28;20483;-70
2021/06/12 08:25:09;;;;;;;4.40;4.00;;;23.40;99.90;;;;;;5078413;28;20855;-70
2021/06/12 08:27:36;;;;;;;4.80;4.10;;;23.40;99.90;;;;;;5079501;28;20457;-70
2021/06/12 08:30:03;;;;;;;4.30;3.90;;;23.40;99.90;;;;;;5078311;28;20454;-70
2021/06/12 08:32:30;;;;;;;8.40;4.03;;;23.50;99.90;;;;;;5077161;28;20481;-70
2021/06/12 08:34:57;;;;;;;4.33;4.03;;;23.60;99.90;;;;;;5079150;28;20529;-70
2021/06/12 08:37:24;;;;;;;4.20;3.73;;;23.60;99.90;;;;;;5078673;28;20882;-70
2021/06/12 08:39:52;;;;;;;4.67;3.80;;;23.60;99.90;;;;;;5077838;28;20453;-70
2021/06/12 08:42:18;;;;;;;4.13;3.73;;;23.50;99.90;;;;;;5077016;28;20474;-70
2021/06/12 08:44:45;;;;;;;4.40;3.30;;;23.40;99.90;;;;;;5078640;28;20450;-70
2021/06/12 08:47:12;;;;;;;3.73;3.43;;;23.50;99.90;;;;;;5079094;28;20469;-70
2021/06/12 08:49:38;;;;;;;4.47;4.07;;;23.50;99.90;;;;;;5077803;28;20991;-70
2021/06/12 08:52:08;;;;;;;3.90;3.50;;;23.60;99.90;;;;;;5078207;28;20467;-70
2021/06/12 08:54:34;;;;;;;4.40;4.03;;;23.80;99.90;;;;;;5085021;28;21019;-69
2021/06/12 08:57:00;;;;;;;4.70;3.57;;;24.00;99.90;;;;;;5089094;28;20456;-70
2021/06/12 08:59:33;;;;;;;4.07;3.77;;;24.10;99.90;;;;;;5069533;28;20464;-70
2021/06/12 09:01:59;;;;;;;3.73;3.43;;;24.20;99.90;;;;;;5070482;28;20567;-70
2021/06/12 09:04:27;;;;;;;3.10;2.90;;;24.30;99.90;;;;;;5073000;28;20458;-71
2021/06/12 09:07:19;;;;;;;3.80;3.40;;;24.40;99.90;;;;;;5072850;28;20454;-71
2021/06/12 09:09:46;;;;;;;3.67;3.37;;;24.40;99.90;;;;;;5073476;28;20458;-71
2021/06/12 09:12:13;;;;;;;3.60;3.30;;;24.40;99.90;;;;;;5072786;28;20478;-71
2021/06/12 09:14:39;;;;;;;3.53;3.27;;;24.40;99.90;;;;;;5072693;28;20483;-71
2021/06/12 09:17:06;;;;;;;4.30;4.00;;;24.30;99.90;;;;;;5073094;28;20454;-71
2021/06/12 09:19:39;;;;;;;4.93;4.43;;;24.30;99.90;;;;;;5075663;28;20461;-71
2021/06/12 09:22:06;;;;;;;3.80;3.50;;;24.20;99.90;;;;;;5092729;28;20480;-70
2021/06/12 09:24:38;;;;;;;4.03;3.70;;;24.10;99.90;;;;;;5092814;28;20465;-71
2021/06/12 09:27:11;;;;;;;3.73;3.43;;;24.00;99.90;;;;;;5092763;28;20452;-71
2021/06/12 09:29:38;;;;;;;3.60;3.20;;;24.20;99.90;;;;;;5092773;28;20528;-71
2021/06/12 09:32:11;;;;;;;3.70;3.40;;;24.30;99.90;;;;;;5092576;28;20496;-71
2021/06/12 09:34:38;;;;;;;3.27;2.97;;;24.50;99.90;;;;;;5092031;28;20457;-71
2021/06/12 09:37:11;;;;;;;3.13;2.83;;;24.50;99.90;;;;;;5093045;28;20461;-70
2021/06/12 09:39:39;;;;;;;3.17;2.97;;;24.40;99.90;;;;;;5092809;28;20953;-71
2021/06/12 09:42:06;;;;;;;3.30;3.00;;;24.30;99.90;;;;;;5092035;28;20482;-71
2021/06/12 09:44:34;;;;;;;3.40;3.10;;;24.20;99.90;;;;;;5092800;28;20836;-71
2021/06/12 09:47:01;;;;;;;4.47;3.13;;;24.10;99.90;;;;;;5092641;28;20461;-71
2021/06/12 09:49:32;;;;;;;3.70;3.40;;;24.00;99.90;;;;;;5092397;28;20469;-72
2021/06/12 09:52:07;;;;;;;3.20;3.00;;;24.20;99.90;;;;;;5092216;28;20473;-71
2021/06/12 09:54:35;;;;;;;3.60;2.90;;;24.40;99.90;;;;;;5091914;28;20469;-71
2021/06/12 09:57:03;;;;;;;3.50;3.20;;;24.50;99.90;;;;;;5092581;28;20487;-71
2021/06/12 09:59:43;;;;;;;4.50;3.50;;;24.70;99.90;;;;;;5092147;28;20848;-71
2021/06/12 10:02:16;;;;;;;3.60;3.30;;;24.70;99.90;;;;;;5091744;28;20933;-70
2021/06/12 10:04:58;;;;;;;2.80;2.60;;;24.70;99.90;;;;;;5092410;28;20461;-70
2021/06/12 10:07:25;;;;;;;3.40;3.10;;;24.80;99.90;;;;;;5092020;28;20468;-71
2021/06/12 10:09:53;;;;;;;7.70;3.97;;;25.00;99.90;;;;;;5092054;28;20458;-71
2021/06/12 10:12:22;;;;;;;11.03;7.40;;;25.10;99.90;;;;;;5091583;28;20486;-71
2021/06/12 10:14:51;;;;;;;18.93;12.20;;;25.00;99.90;;;;;;5091726;28;20870;-71
2021/06/12 10:17:20;;;;;;;16.33;9.77;;;25.00;99.90;;;;;;5091755;28;20453;-71
2021/06/12 10:19:49;;;;;;;6.37;4.60;;;25.10;99.90;;;;;;5092151;28;20453;-71
2021/06/12 10:22:16;;;;;;;9.40;5.60;;;25.20;99.90;;;;;;5091277;28;20541;-71
2021/06/12 10:24:42;;;;;;;7.00;5.10;;;25.40;99.90;;;;;;5091860;28;21032;-71
2021/06/12 10:27:10;;;;;;;5.57;4.90;;;25.50;99.90;;;;;;5091959;28;20458;-70
2021/06/12 10:29:38;;;;;;;4.10;3.70;;;25.60;99.90;;;;;;5091200;28;20572;-71
2021/06/12 10:32:06;;;;;;;4.07;3.30;;;25.60;99.90;;;;;;5091393;28;20569;-71
2021/06/12 10:34:34;;;;;;;3.30;3.10;;;25.60;99.90;;;;;;5091363;28;20453;-71
2021/06/12 10:37:03;;;;;;;5.33;3.77;;;25.50;99.90;;;;;;5091289;28;20851;-72
2021/06/12 10:39:33;;;;;;;3.70;3.40;;;25.50;99.90;;;;;;5091483;28;20887;-71
2021/06/12 10:42:15;;;;;;;3.13;2.93;;;25.60;99.90;;;;;;5090910;28;20481;-71
2021/06/12 10:44:44;;;;;;;3.30;3.10;;;25.80;99.90;;;;;;5091693;28;20462;-71
2021/06/12 10:47:11;;;;;;;4.33;3.10;;;26.00;99.90;;;;;;5091537;28;20930;-71
2021/06/12 10:49:39;;;;;;;3.80;2.90;;;26.00;99.90;;;;;;5090998;28;20940;-71
2021/06/12 10:52:06;;;;;;;4.33;3.00;;;25.90;99.90;;;;;;5091275;28;20478;-71
2021/06/12 10:54:35;;;;;;;6.53;3.57;;;25.90;99.90;;;;;;5091197;28;20493;-71
2021/06/12 10:57:04;;;;;;;3.23;2.67;;;25.90;99.90;;;;;;5091199;28;20485;-70
2021/06/12 10:59:44;;;;;;;3.50;2.70;;;25.90;99.90;;;;;;5091209;28;20545;-71
2021/06/12 11:02:14;;;;;;;3.23;2.87;;;25.80;99.90;;;;;;5090496;28;20485;-71
2021/06/12 11:04:50;;;;;;;2.80;2.50;;;26.00;99.90;;;;;;5091392;28;20470;-71
2021/06/12 11:07:27;;;;;;;3.90;2.93;;;26.10;99.90;;;;;;5091403;28;20526;-70
2021/06/12 11:10:25;;;;;;;2.60;2.40;;;26.10;99.90;;;;;;5090992;28;20842;-71
2021/06/12 11:12:57;;;;;;;2.70;2.50;;;26.20;99.90;;;;;;5088287;28;20470;-71
2021/06/12 11:15:32;;;;;;;3.30;3.00;;;26.20;99.90;;;;;;5087846;28;20511;-71
2021/06/12 11:18:18;;;;;;;4.00;3.23;;;26.40;99.90;;;;;;5088237;28;20548;-71
2021/06/12 11:20:47;;;;;;;3.10;2.80;;;26.50;99.90;;;;;;5087424;28;20461;-71
2021/06/12 11:23:20;;;;;;;3.00;2.60;;;26.60;99.90;;;;;;5087720;28;20481;-71
2021/06/12 11:25:58;;;;;;;3.43;3.10;;;26.60;99.90;;;;;;5082226;28;20465;-71
2021/06/12 11:28:30;;;;;;;3.77;2.70;;;26.80;99.90;;;;;;5076317;28;20558;-72
2021/06/12 11:31:26;;;;;;;2.67;2.30;;;26.90;99.90;;;;;;5071825;28;20519;-71
2021/06/12 11:34:20;;;;;;;2.90;2.60;;;27.10;99.90;;;;;;5101118;22;20493;-70
2021/06/12 11:36:49;;;;;;;3.37;3.07;;;27.20;99.90;;;;;;5076969;28;20490;-67
2021/06/12 11:39:15;;;;;;;3.00;2.50;;;27.40;99.90;;;;;;5075812;28;20459;-68
2021/06/12 11:41:44;;;;;;;3.80;2.47;;;27.60;99.90;;;;;;5076950;28;20469;-68
2021/06/12 11:44:10;;;;;;;4.87;3.30;;;27.60;99.90;;;;;;5066290;28;20478;-68
2021/06/12 11:46:43;;;;;;;3.97;2.67;;;27.70;99.90;;;;;;5067227;28;20460;-67
2021/06/12 11:49:11;;;;;;;3.30;3.10;;;27.80;99.90;;;;;;5066883;28;20903;-68
2021/06/12 11:51:41;;;;;;;2.80;2.60;;;27.80;99.90;;;;;;5067055;28;20464;-68
2021/06/12 11:54:13;;;;;;;2.77;2.57;;;27.60;99.90;;;;;;5066989;28;21001;-68
2021/06/12 11:56:41;;;;;;;4.20;2.87;;;27.60;99.90;;;;;;5067679;28;21084;-68
2021/06/12 11:59:09;;;;;;;2.60;2.40;;;27.60;99.90;;;;;;5067736;28;20551;-68
2021/06/12 12:01:45;;;;;;;4.23;2.33;;;27.60;99.90;;;;;;5067356;28;21073;-68
2021/06/12 12:04:14;;;;;;;2.20;2.00;;;27.70;99.60;;;;;;5067462;28;20544;-67
2021/06/12 12:06:46;;;;;;;2.43;2.23;;;27.60;98.90;;;;;;5067727;28;21030;-68
2021/06/12 12:09:23;;;;;;;2.63;2.33;;;27.70;99.20;;;;;;5067953;28;20509;-68
2021/06/12 12:11:54;;;;;;;2.87;2.30;;;27.70;98.70;;;;;;5067300;28;20516;-68
2021/06/12 12:14:30;;;;;;;3.07;2.60;;;27.70;99.20;;;;;;5068165;28;20873;-67
2021/06/12 12:16:58;;;;;;;2.90;2.53;;;27.60;99.20;;;;;;5066798;28;20483;-67
2021/06/12 12:19:24;;;;;;;2.87;2.67;;;27.50;98.10;;;;;;5067510;28;20464;-68
2021/06/12 12:21:52;;;;;;;2.43;2.17;;;27.60;99.90;;;;;;5066997;28;20458;-67
2021/06/12 12:24:19;;;;;;;3.10;2.40;;;27.70;99.90;;;;;;5067169;28;20462;-68
2021/06/12 12:26:55;;;;;;;2.80;2.60;;;27.70;99.40;;;;;;5066841;28;20540;-69
2021/06/12 12:29:23;;;;;;;2.50;2.30;;;27.80;99.20;;;;;;5066788;28;20601;-68
2021/06/12 12:31:50;;;;;;;3.10;2.33;;;27.90;99.90;;;;;;5050049;28;20493;-69
2021/06/12 12:34:29;;;;;;;6.80;2.13;;;27.90;99.30;;;;;;5047757;28;20772;-71
2021/06/12 12:36:56;;;;;;;3.10;2.70;;;27.90;99.60;;;;;;5048917;28;20495;-69
2021/06/12 12:39:23;;;;;;;2.50;2.30;;;27.80;98.80;;;;;;5050899;28;20890;-69
2021/06/12 12:41:53;;;;;;;8.63;2.40;;;27.80;98.70;;;;;;5050504;28;20490;-69
2021/06/12 12:44:20;;;;;;;6.00;2.47;;;27.90;99.10;;;;;;5051699;28;20551;-68
2021/06/12 12:46:48;;;;;;;2.47;2.27;;;27.80;98.20;;;;;;5051201;28;20843;-67
2021/06/12 12:49:23;;;;;;;2.63;2.23;;;27.70;98.90;;;;;;5050374;28;20907;-68